createdAt,value
2022-11-28T17:01:41.951Z,22.00
2022-11-28T17:03:46.518Z,18.60
2022-11-28T17:05:18.261Z,26.20
2022-11-28T17:06:50.690Z,27.60
2022-11-28T17:08:27.493Z,24.20
2022-11-28T17:10:01.887Z,22.00
2022-11-28T17:11:36.338Z,31.40
2022-11-28T17:13:09.249Z,28.00
2022-11-28T17:14:41.139Z,28.00
2022-11-28T17:16:17.318Z,33.40
2022-11-28T17:17:49.051Z,31.20
2022-11-28T17:19:20.692Z,10.40
2022-11-28T17:20:52.392Z,30.80
2022-11-28T17:22:25.644Z,24.60
2022-11-28T17:23:57.378Z,28.20
2022-11-28T17:25:29.604Z,30.60
2022-11-28T17:27:01.356Z,31.40
2022-11-28T17:28:33.183Z,27.80
2022-11-28T17:30:05.455Z,32.60
2022-11-28T17:31:37.596Z,31.40
2022-11-28T17:33:14.985Z,34.40
2022-11-28T17:34:46.924Z,31.60
2022-11-28T17:36:18.792Z,23.60
2022-11-28T17:37:50.568Z,26.00
2022-11-28T17:39:22.223Z,26.60
2022-11-28T17:40:53.916Z,28.00
2022-11-28T17:42:25.706Z,27.80
2022-11-28T17:43:58.080Z,26.20
2022-11-28T17:45:31.379Z,23.80
2022-11-28T17:47:03.591Z,28.00
2022-11-28T17:48:35.253Z,26.40
2022-11-28T17:50:07.561Z,29.80
2022-11-28T17:51:39.469Z,18.80
2022-11-28T17:53:12.015Z,25.20
2022-11-28T17:54:43.794Z,22.20
2022-11-28T17:56:15.711Z,25.40
2022-11-28T17:57:47.930Z,25.80
2022-11-28T17:59:21.017Z,26.20
2022-11-28T18:00:57.348Z,22.80
2022-11-28T18:02:31.800Z,20.80
2022-11-28T18:04:04.622Z,25.60
2022-11-28T18:05:40.559Z,24.80
2022-11-28T18:07:13.337Z,20.00
2022-11-28T18:08:46.006Z,26.20
2022-11-28T18:10:18.529Z,27.40
2022-11-28T18:11:51.752Z,22.40
2022-11-28T18:13:23.538Z,21.60
2022-11-28T18:14:55.422Z,25.00
2022-11-28T18:16:27.203Z,33.20
2022-11-28T18:17:59.383Z,26.80
2022-11-28T18:19:31.102Z,28.80
2022-11-28T18:21:03.289Z,26.00
2022-11-28T18:22:34.953Z,27.00
2022-11-28T18:24:07.465Z,29.00
2022-11-28T18:25:45.893Z,39.00
2022-11-28T18:27:17.503Z,50.40
2022-11-28T18:28:49.340Z,63.75
2022-11-28T18:30:21.233Z,80.75
2022-11-28T18:31:52.980Z,72.50
2022-11-28T18:33:25.623Z,87.75
2022-11-28T18:34:57.368Z,80.25
2022-11-28T18:36:29.840Z,110.80
2022-11-28T18:38:01.734Z,111.60
2022-11-28T18:39:34.068Z,114.40
2022-11-28T18:41:06.742Z,119.25
2022-11-28T18:42:38.996Z,119.50
2022-11-28T18:44:11.184Z,130.25
2022-11-28T18:45:43.005Z,135.75
2022-11-28T18:47:15.195Z,128.50
2022-11-28T18:48:47.234Z,158.75
2022-11-28T18:50:19.127Z,163.25
2022-11-28T18:51:51.177Z,168.25
2022-11-28T18:53:24.617Z,173.00
2022-11-28T18:54:56.297Z,155.50
2022-11-28T18:56:29.307Z,185.50
2022-11-28T18:58:02.171Z,186.75
2022-11-28T18:59:33.928Z,186.25
2022-11-28T19:01:16.699Z,190.50
2022-11-28T19:02:48.639Z,175.00
2022-11-28T19:04:20.411Z,184.25
2022-11-28T19:05:52.466Z,178.00
2022-11-28T19:07:24.483Z,187.75
2022-11-28T19:08:57.287Z,180.25
2022-11-28T19:10:29.075Z,192.50
2022-11-28T19:12:01.066Z,178.00
2022-11-28T19:13:32.851Z,161.00
2022-11-28T19:15:05.032Z,174.25
2022-11-28T19:16:37.765Z,172.25
2022-11-28T19:18:09.669Z,173.25
2022-11-28T19:19:44.201Z,185.50
2022-11-28T19:21:18.065Z,153.25
2022-11-28T19:22:49.864Z,158.00
2022-11-28T19:24:21.811Z,153.50
2022-11-28T19:25:54.813Z,140.75
2022-11-28T19:27:27.764Z,148.00
2022-11-28T19:28:59.895Z,143.25
2022-11-28T19:30:32.839Z,130.75
2022-11-28T19:32:05.681Z,140.75
2022-11-28T19:33:37.488Z,143.75
2022-11-28T19:35:09.558Z,140.50
2022-11-28T19:36:43.098Z,155.00
2022-11-28T19:38:15.034Z,165.25
2022-11-28T19:39:47.536Z,143.75
2022-11-28T19:41:20.800Z,176.50
2022-11-28T19:42:53.441Z,153.00
2022-11-28T19:44:28.965Z,147.25
2022-11-28T19:46:18.084Z,149.25
2022-11-28T19:47:49.867Z,148.75
2022-11-28T19:49:23.658Z,155.75
2022-11-28T19:50:55.538Z,154.25
2022-11-28T19:52:27.939Z,143.00
2022-11-28T19:54:03.281Z,154.00
2022-11-28T19:55:37.989Z,175.75
2022-11-28T19:57:11.364Z,193.25
2022-11-28T19:58:43.382Z,172.50
2022-11-28T20:00:16.093Z,171.50
2022-11-28T20:01:53.781Z,177.50
2022-11-28T20:03:25.400Z,171.00
2022-11-28T20:04:57.330Z,163.75
2022-11-28T20:06:30.629Z,214.00
2022-11-28T20:08:02.994Z,183.25
2022-11-28T20:09:34.954Z,177.25
2022-11-28T20:11:18.413Z,161.75
2022-11-28T20:12:50.555Z,182.75
2022-11-28T20:14:23.646Z,158.75
2022-11-28T20:15:55.377Z,171.00
2022-11-28T20:17:28.152Z,164.50
2022-11-28T20:19:03.090Z,183.00
2022-11-28T20:20:34.963Z,185.50
2022-11-28T20:22:06.971Z,174.75
2022-11-28T20:23:44.688Z,181.50
2022-11-28T20:25:20.778Z,181.00
2022-11-28T20:26:56.989Z,173.75
2022-11-28T20:28:31.729Z,171.25
2022-11-28T20:30:05.981Z,168.00
2022-11-28T20:31:45.660Z,203.25
2022-11-28T20:33:19.844Z,185.75
2022-11-28T20:34:51.758Z,161.00
2022-11-28T20:36:24.346Z,166.00
2022-11-28T20:37:56.123Z,152.75
2022-11-28T20:39:27.817Z,148.25
2022-11-28T20:41:03.599Z,144.50
2022-11-28T20:42:40.168Z,152.75
2022-11-28T20:44:12.178Z,148.00
2022-11-28T20:45:44.007Z,178.50
2022-11-28T20:47:15.829Z,146.75
2022-11-28T20:48:47.905Z,148.75
2022-11-28T20:50:19.752Z,157.25
2022-11-28T20:51:51.638Z,139.25
2022-11-28T20:53:26.807Z,146.75
2022-11-28T20:54:58.937Z,133.50
2022-11-28T20:56:31.827Z,133.00
2022-11-28T20:58:03.668Z,128.00
2022-11-28T20:59:35.433Z,124.50
2022-11-28T21:01:07.463Z,118.60
2022-11-28T21:02:39.469Z,109.80
2022-11-28T21:04:13.235Z,102.40
2022-11-28T21:05:45.111Z,105.80
2022-11-28T21:07:17.921Z,84.50
2022-11-28T21:08:49.743Z,90.75
2022-11-28T21:10:21.478Z,88.25
2022-11-28T21:11:59.043Z,89.00
2022-11-28T21:13:32.031Z,85.50
2022-11-28T21:15:04.025Z,90.50
2022-11-28T21:16:35.902Z,85.00
2022-11-28T21:18:09.229Z,77.50
2022-11-28T21:19:41.110Z,86.25
2022-11-28T21:21:14.935Z,85.00
2022-11-28T21:22:46.684Z,103.25
2022-11-28T21:24:18.399Z,120.20
2022-11-28T21:25:50.181Z,99.00
2022-11-28T21:27:21.919Z,100.25
2022-11-28T21:28:55.046Z,103.50
2022-11-28T21:30:26.673Z,95.00
2022-11-28T21:31:58.374Z,103.00
2022-11-28T21:33:30.128Z,105.00
2022-11-28T21:35:04.676Z,100.75
2022-11-28T21:36:36.569Z,106.00
2022-11-28T21:38:08.319Z,99.80
2022-11-28T21:39:40.060Z,101.40
2022-11-28T21:41:12.787Z,101.00
2022-11-28T21:42:44.559Z,104.00
2022-11-28T21:44:16.466Z,102.75
2022-11-28T21:45:48.188Z,94.00
2022-11-28T21:47:19.915Z,95.00
2022-11-28T21:48:52.233Z,108.25
2022-11-28T21:50:24.052Z,98.75
2022-11-28T21:51:55.829Z,106.50
2022-11-28T21:53:29.262Z,100.75
2022-11-28T21:55:01.003Z,102.50
2022-11-28T21:56:32.813Z,92.25
2022-11-28T21:58:04.523Z,101.00
2022-11-28T21:59:36.270Z,103.80
2022-11-28T22:01:10.084Z,116.20
2022-11-28T22:02:46.380Z,142.75
2022-11-28T22:04:21.893Z,132.25
2022-11-28T22:05:59.988Z,120.25
2022-11-28T22:07:32.312Z,143.50
2022-11-28T22:09:09.165Z,145.25
2022-11-28T22:10:41.655Z,129.50
2022-11-28T22:12:13.353Z,132.75
2022-11-28T22:13:48.033Z,125.25
2022-11-28T22:15:20.480Z,131.00
2022-11-28T22:16:52.540Z,129.75
2022-11-28T22:18:24.532Z,127.50
2022-11-28T22:19:56.366Z,150.25
2022-11-28T22:21:51.453Z,150.25
2022-11-28T22:23:20.170Z,174.50
2022-11-28T22:24:52.340Z,163.00
2022-11-28T22:26:24.881Z,157.50
2022-11-28T22:27:56.844Z,150.00
2022-11-28T22:29:28.712Z,168.50
2022-11-28T22:31:09.299Z,170.50
2022-11-28T22:32:41.437Z,170.25
2022-11-28T22:34:13.594Z,155.25
2022-11-28T22:35:45.635Z,154.25
2022-11-28T22:37:18.103Z,161.00
2022-11-28T22:38:54.637Z,154.00
2022-11-28T22:40:26.314Z,155.00
2022-11-28T22:41:58.023Z,144.75
2022-11-28T22:43:29.955Z,147.00
2022-11-28T22:45:02.037Z,138.75
2022-11-28T22:46:33.864Z,136.50
2022-11-28T22:48:05.995Z,131.50
2022-11-28T22:49:37.987Z,139.50
2022-11-28T22:51:17.799Z,127.75
2022-11-28T22:52:49.483Z,126.00
2022-11-28T22:54:22.219Z,135.00
2022-11-28T22:55:55.463Z,125.50
2022-11-28T22:57:28.118Z,120.50
2022-11-28T22:58:59.983Z,122.50
2022-11-28T23:00:32.843Z,125.00
2022-11-28T23:02:05.137Z,117.40
2022-11-28T23:03:37.049Z,118.80
2022-11-28T23:05:09.072Z,114.80
2022-11-28T23:06:40.852Z,110.20
2022-11-28T23:08:14.136Z,104.00
2022-11-28T23:09:46.468Z,98.25
2022-11-28T23:11:22.896Z,101.20
2022-11-28T23:12:54.887Z,105.25
2022-11-28T23:14:27.612Z,104.50
2022-11-28T23:16:35.566Z,91.33
2022-11-28T23:18:07.669Z,88.75
2022-11-28T23:19:40.192Z,90.25
2022-11-28T23:21:12.811Z,105.80
2022-11-28T23:22:45.426Z,85.00
2022-11-28T23:24:19.479Z,93.75
2022-11-28T23:25:51.323Z,90.50
2022-11-28T23:27:23.329Z,79.75
2022-11-28T23:28:55.103Z,81.75
2022-11-28T23:30:27.367Z,76.25
2022-11-28T23:31:59.227Z,80.50
2022-11-28T23:33:33.028Z,87.50
